KR-0346 weather

Haeundae Exordium Apartments Heliports
Haeundae (Busan), Busan Gwang'yeogsi, South Korea

Public forecast

Using degrees Celsius for public forecast. Weather courtesy of forecast.io.

Closest aviation weather report (METAR) to Haeundae Exordium Apartments Heliports

Closest report is Gimhae International Airport, 9.8 nm (18.2 km) W. Retrieved 2020/07/02 12:00 UTC (33 minutes ago):

RKPK 021200Z 09006KT CAVOK 23/13 Q1012

Closest aviation forecast (TAF) to Haeundae Exordium Apartments Heliports

Closest forecast is Gimhae International Airport, 9.8 nm (18.2 km) W. Retrieved 2020/07/02 12:00 UTC (33 minutes ago):

TAF RKPK 021100Z 0212/0318 07006KT CAVOK TN19/0220Z TX26/0305Z BECMG 0303/0304 06011KT 9999 BKN030 BKN120 BECMG 0310/0311 04006KT